createdAt,value
2023-01-21T00:01:23.336Z,14.50
2023-01-21T00:04:26.957Z,14.20
2023-01-21T00:07:02.125Z,15.80
2023-01-21T00:09:38.759Z,15.90
2023-01-21T00:13:24.008Z,15.80
2023-01-21T00:19:02.980Z,16.40
2023-01-21T00:21:36.750Z,18.10
2023-01-21T00:24:11.661Z,17.20
2023-01-21T00:26:45.455Z,17.40
2023-01-21T00:32:16.923Z,19.30
2023-01-21T00:34:52.740Z,19.00
2023-01-21T00:37:33.475Z,17.00
2023-01-21T00:40:53.293Z,18.10
2023-01-21T00:43:31.003Z,17.70
2023-01-21T00:46:36.048Z,18.40
2023-01-21T00:49:10.460Z,16.10
2023-01-21T00:51:43.858Z,16.70
2023-01-21T00:54:21.089Z,16.60
2023-01-21T00:57:18.761Z,16.40
2023-01-21T01:00:18.630Z,16.70
2023-01-21T01:02:52.674Z,17.70
2023-01-21T01:05:30.815Z,18.90
2023-01-21T01:08:06.079Z,16.70
2023-01-21T01:11:07.671Z,17.20
2023-01-21T01:13:40.630Z,15.80
2023-01-21T01:17:00.878Z,17.50
2023-01-21T01:20:22.511Z,15.60
2023-01-21T01:23:45.139Z,17.60
2023-01-21T01:26:19.727Z,16.20
2023-01-21T01:29:17.957Z,16.20
2023-01-21T01:31:53.979Z,16.40
2023-01-21T01:38:14.071Z,17.10
2023-01-21T01:40:47.990Z,17.50
2023-01-21T01:44:09.568Z,20.10
2023-01-21T01:46:46.973Z,16.90
2023-01-21T01:49:50.301Z,18.00
2023-01-21T01:52:28.836Z,17.60
2023-01-21T01:55:04.772Z,16.30
2023-01-21T01:57:45.356Z,16.20
2023-01-21T02:01:11.139Z,14.30
2023-01-21T02:03:54.449Z,14.90
2023-01-21T02:09:51.630Z,14.50
2023-01-21T02:12:56.763Z,13.80
2023-01-21T02:15:40.122Z,16.40
2023-01-21T02:18:40.056Z,16.90
2023-01-21T02:22:04.267Z,19.50
2023-01-21T02:25:25.808Z,21.80
2023-01-21T02:28:21.546Z,21.50
2023-01-21T02:31:23.565Z,19.90
2023-01-21T02:34:24.123Z,17.70
2023-01-21T02:37:29.242Z,18.00
2023-01-21T02:46:44.035Z,14.80
2023-01-21T02:49:25.003Z,16.60
2023-01-21T02:52:00.712Z,15.60
2023-01-21T02:54:54.994Z,16.40
2023-01-21T03:01:45.752Z,24.10
2023-01-21T03:04:56.473Z,20.90
2023-01-21T03:08:19.029Z,27.80
2023-01-21T03:11:41.048Z,18.60
2023-01-21T03:14:42.294Z,18.90
2023-01-21T03:20:49.222Z,17.20
2023-01-21T03:26:35.682Z,17.20
2023-01-21T03:29:37.727Z,18.50
2023-01-21T03:32:16.933Z,20.00
2023-01-21T03:34:53.548Z,17.80
2023-01-21T03:38:01.243Z,17.20
2023-01-21T03:43:56.701Z,14.40
2023-01-21T03:46:57.332Z,15.10
2023-01-21T03:50:27.294Z,16.40
2023-01-21T03:53:05.528Z,17.10
2023-01-21T03:56:04.456Z,19.50
2023-01-21T03:58:47.209Z,19.80
2023-01-21T04:02:35.263Z,17.40
2023-01-21T04:05:10.084Z,14.80
2023-01-21T04:07:48.654Z,15.10
2023-01-21T04:10:24.707Z,13.70
2023-01-21T04:12:58.517Z,13.30
2023-01-21T04:15:34.634Z,17.50
2023-01-21T04:18:34.992Z,15.40
2023-01-21T04:21:15.787Z,13.80
2023-01-21T04:23:53.035Z,13.50
2023-01-21T04:26:26.813Z,12.70
2023-01-21T04:29:01.955Z,11.70
2023-01-21T04:31:37.999Z,12.10
2023-01-21T04:34:41.946Z,11.70
2023-01-21T04:37:17.163Z,12.30
2023-01-21T04:39:53.095Z,11.70
2023-01-21T04:42:26.915Z,12.80
2023-01-21T04:45:06.527Z,13.20
2023-01-21T04:47:39.918Z,14.50
2023-01-21T04:50:38.210Z,15.00
2023-01-21T05:00:00.232Z,14.00
2023-01-21T05:03:23.722Z,13.00
2023-01-21T05:06:45.409Z,12.90
2023-01-21T05:12:21.741Z,12.10
2023-01-21T05:15:05.436Z,12.20
2023-01-21T05:25:23.143Z,11.50
2023-01-21T05:28:22.147Z,13.00
2023-01-21T05:30:56.739Z,12.80
2023-01-21T05:34:20.273Z,12.50
2023-01-21T05:36:54.231Z,12.30
2023-01-21T05:39:29.943Z,11.90
2023-01-21T05:49:17.421Z,15.00
2023-01-21T05:51:50.003Z,16.50
2023-01-21T05:54:26.247Z,14.80
2023-01-21T05:57:02.624Z,15.40
2023-01-21T06:00:07.018Z,14.10
2023-01-21T06:02:43.552Z,14.60
2023-01-21T06:06:06.251Z,15.60
2023-01-21T06:08:42.937Z,15.10
2023-01-21T06:11:18.699Z,16.70
2023-01-21T06:14:18.267Z,16.20
2023-01-21T06:17:20.373Z,17.10
2023-01-21T06:19:52.730Z,14.90
2023-01-21T06:22:26.356Z,14.00
2023-01-21T06:25:03.832Z,13.40
2023-01-21T06:28:50.958Z,13.80
2023-01-21T06:32:16.141Z,18.50
2023-01-21T06:34:51.486Z,23.10
2023-01-21T06:37:25.951Z,17.40
2023-01-21T06:40:01.826Z,16.90
2023-01-21T06:46:00.516Z,18.30
2023-01-21T06:48:59.100Z,17.40
2023-01-21T06:51:34.201Z,20.10
2023-01-21T06:54:09.529Z,17.20
2023-01-21T06:56:49.550Z,19.60
2023-01-21T06:59:49.747Z,20.70
2023-01-21T07:02:28.448Z,17.30
2023-01-21T07:05:03.510Z,17.20
2023-01-21T07:07:36.856Z,15.60
2023-01-21T07:10:34.456Z,17.40
2023-01-21T07:13:10.958Z,14.80
2023-01-21T07:19:29.246Z,20.30
2023-01-21T07:22:25.376Z,18.10
2023-01-21T07:25:02.898Z,22.20
2023-01-21T07:27:36.350Z,20.00
2023-01-21T07:30:12.113Z,15.70
2023-01-21T07:32:51.302Z,22.90
2023-01-21T07:35:25.926Z,16.90
2023-01-21T07:38:03.716Z,23.90
2023-01-21T07:41:26.060Z,33.90
2023-01-21T07:44:25.892Z,23.10
2023-01-21T07:49:58.416Z,19.20
2023-01-21T07:52:34.245Z,19.30
2023-01-21T07:55:12.607Z,21.80
2023-01-21T07:57:47.804Z,19.50
2023-01-21T08:06:27.519Z,33.70
2023-01-21T08:09:01.393Z,36.90
2023-01-21T08:12:02.310Z,44.80
2023-01-21T08:14:38.629Z,48.80
2023-01-21T08:17:14.335Z,37.80
2023-01-21T08:19:49.468Z,43.90
2023-01-21T08:22:26.570Z,41.70
2023-01-21T08:25:03.272Z,34.90
2023-01-21T08:27:35.990Z,49.40
2023-01-21T08:30:14.074Z,35.50
2023-01-21T08:32:50.368Z,34.80
2023-01-21T08:36:16.327Z,38.70
2023-01-21T08:38:48.917Z,29.60
2023-01-21T08:41:22.490Z,24.50
2023-01-21T08:43:58.296Z,26.90
2023-01-21T08:46:57.177Z,29.40
2023-01-21T08:49:56.820Z,25.40
2023-01-21T08:52:32.407Z,33.30
2023-01-21T08:55:05.067Z,32.60
2023-01-21T08:57:44.062Z,39.30
2023-01-21T09:00:43.535Z,40.90
2023-01-21T09:03:20.808Z,26.00
2023-01-21T09:06:18.947Z,38.90
2023-01-21T09:08:54.056Z,42.40
2023-01-21T09:11:56.107Z,330.20
2023-01-21T09:14:33.059Z,107.00
2023-01-21T09:17:08.392Z,59.80
2023-01-21T09:19:43.310Z,46.50
2023-01-21T09:22:40.132Z,28.00
2023-01-21T09:26:25.639Z,22.80
2023-01-21T09:29:02.544Z,21.00
2023-01-21T09:32:24.062Z,32.90
2023-01-21T09:34:57.734Z,45.70
2023-01-21T09:37:55.542Z,52.00
2023-01-21T09:40:56.608Z,49.30
2023-01-21T09:43:57.470Z,47.80
2023-01-21T09:46:40.342Z,44.50
2023-01-21T09:50:00.775Z,35.00
2023-01-21T09:59:04.425Z,33.10
2023-01-21T10:01:45.081Z,32.50
2023-01-21T10:04:35.259Z,35.00
2023-01-21T10:07:15.665Z,35.90
2023-01-21T10:13:45.209Z,34.20
2023-01-21T10:16:47.197Z,26.50
2023-01-21T10:19:28.985Z,33.50
2023-01-21T10:22:08.003Z,42.40
2023-01-21T10:25:05.200Z,40.20
2023-01-21T10:27:39.368Z,43.70
2023-01-21T10:30:29.882Z,53.70
2023-01-21T10:33:56.792Z,28.80
2023-01-21T10:37:05.094Z,39.10
2023-01-21T10:39:52.978Z,45.10
2023-01-21T10:43:18.554Z,35.80
2023-01-21T10:46:21.248Z,42.60
2023-01-21T10:49:32.171Z,41.60
2023-01-21T10:52:33.720Z,36.90
2023-01-21T10:55:37.368Z,35.40
2023-01-21T11:01:28.325Z,31.10
2023-01-21T11:04:53.000Z,40.90
2023-01-21T11:07:50.765Z,32.30
2023-01-21T11:10:26.399Z,44.10
2023-01-21T11:13:47.188Z,44.30
2023-01-21T11:16:43.579Z,44.10
2023-01-21T11:19:29.351Z,34.90
2023-01-21T11:26:39.967Z,47.50
2023-01-21T11:30:10.106Z,42.40
2023-01-21T11:32:48.637Z,41.60
2023-01-21T11:42:03.263Z,36.30
2023-01-21T11:45:18.722Z,57.80
2023-01-21T11:48:00.601Z,56.80
2023-01-21T11:51:20.684Z,49.50
2023-01-21T11:54:15.795Z,61.90
2023-01-21T11:57:22.129Z,64.60
2023-01-21T12:00:03.140Z,98.00
2023-01-21T12:02:40.611Z,63.60
2023-01-21T12:05:21.173Z,56.70
2023-01-21T12:08:43.110Z,40.30
2023-01-21T12:14:59.447Z,26.90
2023-01-21T12:18:22.070Z,34.60
2023-01-21T12:30:46.113Z,47.70
2023-01-21T12:33:36.270Z,42.00
2023-01-21T12:36:40.738Z,38.00
2023-01-21T12:39:24.231Z,41.90
2023-01-21T12:42:16.569Z,35.20
2023-01-21T12:45:16.427Z,36.30
2023-01-21T12:48:01.499Z,32.00
2023-01-21T12:51:03.324Z,29.20
2023-01-21T12:54:10.961Z,32.30
2023-01-21T12:56:52.042Z,27.40
2023-01-21T13:03:00.729Z,29.40
2023-01-21T13:05:37.528Z,35.90
2023-01-21T13:09:22.787Z,39.70
2023-01-21T13:12:25.851Z,26.80
2023-01-21T13:15:24.114Z,26.80
2023-01-21T13:21:58.703Z,35.20
2023-01-21T13:25:01.336Z,38.70
2023-01-21T13:31:08.952Z,32.30
2023-01-21T13:34:10.630Z,32.40
2023-01-21T13:39:55.321Z,31.90
2023-01-21T13:46:35.172Z,43.20
2023-01-21T13:50:06.160Z,27.60
2023-01-21T13:53:14.766Z,32.70
2023-01-21T13:56:24.438Z,32.90
2023-01-21T13:59:00.427Z,37.40
2023-01-21T14:02:20.910Z,72.50
2023-01-21T14:05:02.921Z,76.50
2023-01-21T14:07:43.740Z,48.90
2023-01-21T14:10:22.867Z,56.70
2023-01-21T14:13:46.330Z,49.10
2023-01-21T14:16:49.922Z,46.40
2023-01-21T14:19:36.915Z,38.70
2023-01-21T14:22:18.932Z,36.60
2023-01-21T14:26:06.675Z,35.80
2023-01-21T14:29:09.861Z,36.50
2023-01-21T14:31:47.965Z,39.30
2023-01-21T14:34:23.361Z,54.30
2023-01-21T14:40:13.160Z,55.50
2023-01-21T14:42:47.500Z,61.50
2023-01-21T14:46:06.590Z,62.20
2023-01-21T14:48:45.258Z,79.50
2023-01-21T14:51:28.392Z,57.20
2023-01-21T14:54:05.715Z,62.90
2023-01-21T15:00:24.146Z,93.00
2023-01-21T15:04:12.101Z,84.80
2023-01-21T15:06:47.837Z,89.50
2023-01-21T15:13:28.702Z,57.30
2023-01-21T15:22:53.378Z,52.10
2023-01-21T15:29:37.282Z,50.60
2023-01-21T15:32:35.025Z,48.50
2023-01-21T15:35:45.994Z,47.60
2023-01-21T15:38:44.628Z,47.40
2023-01-21T15:41:41.006Z,49.50
2023-01-21T15:44:24.143Z,55.70
2023-01-21T15:47:00.825Z,59.60
2023-01-21T15:49:41.897Z,61.50
2023-01-21T15:52:28.828Z,65.50
2023-01-21T15:55:27.503Z,58.70
2023-01-21T15:58:32.712Z,58.80
2023-01-21T16:01:37.725Z,60.10
2023-01-21T16:04:56.295Z,61.90
2023-01-21T16:07:39.226Z,64.40
2023-01-21T16:10:22.530Z,68.90
2023-01-21T16:13:04.170Z,60.20
2023-01-21T16:16:06.863Z,64.20
2023-01-21T16:18:47.061Z,60.10
2023-01-21T16:24:26.864Z,62.10
2023-01-21T16:27:00.347Z,66.80
2023-01-21T16:32:41.192Z,59.50
2023-01-21T16:36:00.918Z,58.90
2023-01-21T16:38:34.641Z,58.50
2023-01-21T16:44:26.880Z,52.60
2023-01-21T16:47:51.058Z,65.80
2023-01-21T16:50:50.309Z,76.80
2023-01-21T16:53:25.846Z,75.00
2023-01-21T16:56:04.452Z,78.30
2023-01-21T16:58:38.473Z,77.20
2023-01-21T17:04:14.811Z,70.60
2023-01-21T17:06:50.019Z,89.00
2023-01-21T17:10:12.230Z,86.10
2023-01-21T17:13:16.903Z,73.90
2023-01-21T17:16:00.058Z,84.10
2023-01-21T17:18:37.234Z,85.10
2023-01-21T17:21:16.541Z,78.90
2023-01-21T17:23:53.802Z,75.60
2023-01-21T17:26:37.151Z,77.50
2023-01-21T17:29:21.309Z,78.30
2023-01-21T17:32:27.860Z,84.90
2023-01-21T17:35:23.151Z,81.60
2023-01-21T17:38:00.107Z,93.30
2023-01-21T17:41:03.215Z,93.70
2023-01-21T17:43:41.475Z,100.30
2023-01-21T17:47:26.344Z,90.80
2023-01-21T17:50:04.895Z,81.90
2023-01-21T17:52:37.759Z,81.60
2023-01-21T17:55:59.910Z,84.90
2023-01-21T17:59:15.211Z,85.30
2023-01-21T18:01:56.445Z,87.70
2023-01-21T18:05:21.457Z,91.90
2023-01-21T18:08:43.704Z,86.80
2023-01-21T18:11:22.412Z,75.40
2023-01-21T18:13:56.797Z,78.40
2023-01-21T18:16:34.264Z,81.20
2023-01-21T18:26:19.098Z,83.00
2023-01-21T18:28:58.964Z,85.00
2023-01-21T18:31:33.902Z,85.50
2023-01-21T18:34:09.110Z,85.80
2023-01-21T18:37:29.836Z,81.80
2023-01-21T18:40:06.504Z,74.20
2023-01-21T18:42:44.020Z,75.70
2023-01-21T18:45:47.797Z,68.10
2023-01-21T18:48:22.346Z,64.60
2023-01-21T18:51:44.940Z,67.80
2023-01-21T18:54:25.244Z,85.90
2023-01-21T18:57:28.262Z,75.50
2023-01-21T19:00:06.331Z,75.30
2023-01-21T19:02:42.231Z,90.20
2023-01-21T19:05:16.698Z,89.60
2023-01-21T19:07:56.595Z,83.70
2023-01-21T19:10:37.039Z,69.30
2023-01-21T19:13:11.305Z,77.50
2023-01-21T19:15:48.754Z,68.80
2023-01-21T19:18:24.856Z,67.60
2023-01-21T19:23:58.784Z,75.70
2023-01-21T19:26:38.272Z,81.90
2023-01-21T19:29:24.428Z,92.90
2023-01-21T19:32:27.459Z,95.00
2023-01-21T19:35:04.121Z,88.60
2023-01-21T19:37:47.848Z,87.20
2023-01-21T19:43:49.781Z,87.10
2023-01-21T19:49:52.938Z,79.50
2023-01-21T19:52:58.157Z,81.00
2023-01-21T19:59:00.050Z,82.50
2023-01-21T20:01:41.470Z,82.60
2023-01-21T20:04:19.531Z,86.60
2023-01-21T20:06:54.183Z,97.50
2023-01-21T20:09:28.762Z,117.00
2023-01-21T20:12:05.630Z,112.20
2023-01-21T20:15:09.074Z,110.60
2023-01-21T20:17:44.819Z,110.90
2023-01-21T20:20:57.054Z,128.30
2023-01-21T20:23:53.459Z,158.20
2023-01-21T20:26:34.753Z,164.40
2023-01-21T20:29:32.995Z,164.00
2023-01-21T20:32:29.678Z,131.00
2023-01-21T20:38:13.594Z,123.40
2023-01-21T20:40:48.566Z,117.70
2023-01-21T20:43:27.246Z,116.60
2023-01-21T20:46:32.773Z,134.70
2023-01-21T20:49:07.835Z,154.10
2023-01-21T20:51:46.081Z,164.00
2023-01-21T20:54:19.996Z,177.50
2023-01-21T20:57:40.373Z,159.40
2023-01-21T21:03:20.106Z,129.30
2023-01-21T21:05:53.902Z,119.40
2023-01-21T21:08:27.972Z,127.40
2023-01-21T21:11:03.419Z,123.40
2023-01-21T21:13:38.531Z,123.30
2023-01-21T21:16:20.479Z,135.90
2023-01-21T21:18:56.570Z,134.20
2023-01-21T21:21:33.538Z,120.80
2023-01-21T21:24:09.634Z,117.90
2023-01-21T21:26:45.907Z,119.80
2023-01-21T21:29:20.683Z,113.80
2023-01-21T21:31:53.701Z,116.80
2023-01-21T21:34:29.673Z,113.50
2023-01-21T21:37:03.984Z,114.50
2023-01-21T21:40:01.854Z,120.40
2023-01-21T21:43:00.836Z,130.60
2023-01-21T21:45:34.389Z,141.00
2023-01-21T21:48:30.477Z,156.30
2023-01-21T21:51:07.213Z,165.50
2023-01-21T21:54:26.922Z,160.60
2023-01-21T21:57:00.329Z,139.80
2023-01-21T21:59:37.478Z,122.70
2023-01-21T22:02:17.675Z,124.90
2023-01-21T22:04:55.024Z,110.80
2023-01-21T22:07:58.675Z,108.60
2023-01-21T22:10:31.842Z,106.70
2023-01-21T22:13:06.221Z,100.10
2023-01-21T22:15:42.721Z,102.40
2023-01-21T22:18:16.670Z,104.50
2023-01-21T22:21:14.274Z,102.40
2023-01-21T22:23:51.225Z,103.60
2023-01-21T22:26:47.936Z,99.60
2023-01-21T22:29:23.999Z,102.80
2023-01-21T22:31:59.762Z,117.30
2023-01-21T22:34:35.529Z,123.10
2023-01-21T22:37:15.446Z,125.00
2023-01-21T22:39:50.733Z,118.80
2023-01-21T22:42:25.603Z,119.00
2023-01-21T22:45:01.166Z,117.20
2023-01-21T22:47:39.309Z,121.90
2023-01-21T22:50:13.531Z,126.70
2023-01-21T22:53:16.466Z,133.50
2023-01-21T22:59:18.203Z,133.40
2023-01-21T23:01:51.555Z,133.70
2023-01-21T23:04:23.538Z,127.40
2023-01-21T23:07:20.957Z,130.60
2023-01-21T23:09:56.074Z,132.20
2023-01-21T23:12:32.879Z,130.80
2023-01-21T23:15:05.784Z,131.30
2023-01-21T23:18:26.430Z,142.40
2023-01-21T23:21:02.781Z,163.40
2023-01-21T23:23:43.729Z,156.00
2023-01-21T23:26:24.123Z,142.40
2023-01-21T23:29:01.794Z,145.80
2023-01-21T23:32:23.562Z,135.40
2023-01-21T23:34:59.308Z,145.70
2023-01-21T23:37:36.045Z,140.10
2023-01-21T23:47:47.822Z,119.80
2023-01-21T23:50:24.811Z,118.30
2023-01-21T23:53:21.472Z,123.40
2023-01-21T23:56:50.563Z,129.00
2023-01-21T23:59:48.584Z,130.60
